Aviation Digital Data Service (ADDS)

Output produced by METARs form (1316 UTC 21 April 2021)
found at http://www.aviationweather.gov/metar/data/
 
LFRN 211300Z AUTO 05012KT CAVOK 19/04 Q1015 TEMPO SHRA BKN040TCU
TAF LFRN 211100Z 2112/2212 07008KT 9999 BKN040 
     PROB40 
     TEMPO 2112/2118 5000 SHRA BKN040TCU 
     PROB30 
     TEMPO 2202/2206 4000 BR